sensor_id;sensor_type;location;lat;lon;timestamp;pressure;altitude;pressure_sealevel;temperature;humidity
38939;BME280;24211;49.980;19.776;2023-07-20T00:02:08;98503.56;;;23.71;100.00
38939;BME280;24211;49.980;19.776;2023-07-20T00:04:35;98489.63;;;23.64;100.00
38939;BME280;24211;49.980;19.776;2023-07-20T00:07:03;98503.16;;;23.60;100.00
38939;BME280;24211;49.980;19.776;2023-07-20T00:09:31;98506.84;;;23.56;100.00
38939;BME280;24211;49.980;19.776;2023-07-20T00:11:58;98497.25;;;23.50;100.00
38939;BME280;24211;49.980;19.776;2023-07-20T00:14:27;98494.59;;;23.41;100.00
38939;BME280;24211;49.980;19.776;2023-07-20T00:16:56;98492.84;;;23.36;100.00
38939;BME280;24211;49.980;19.776;2023-07-20T00:19:27;98491.84;;;23.32;100.00
38939;BME280;24211;49.980;19.776;2023-07-20T00:21:56;98488.66;;;23.30;100.00
38939;BME280;24211;49.980;19.776;2023-07-20T00:24:23;98486.09;;;23.25;100.00
38939;BME280;24211;49.980;19.776;2023-07-20T00:26:50;98492.88;;;23.19;100.00
38939;BME280;24211;49.980;19.776;2023-07-20T00:29:18;98490.97;;;23.11;100.00
38939;BME280;24211;49.980;19.776;2023-07-20T00:31:46;98495.47;;;23.07;100.00
38939;BME280;24211;49.980;19.776;2023-07-20T00:34:15;98483.78;;;23.07;100.00
38939;BME280;24211;49.980;19.776;2023-07-20T00:36:42;98482.03;;;23.02;100.00
38939;BME280;24211;49.980;19.776;2023-07-20T00:39:09;98477.25;;;22.99;100.00
38939;BME280;24211;49.980;19.776;2023-07-20T00:41:36;98481.72;;;22.95;100.00
38939;BME280;24211;49.980;19.776;2023-07-20T00:44:05;98478.41;;;22.90;100.00
38939;BME280;24211;49.980;19.776;2023-07-20T00:46:33;98490.09;;;22.82;100.00
38939;BME280;24211;49.980;19.776;2023-07-20T00:49:00;98487.22;;;22.78;100.00
38939;BME280;24211;49.980;19.776;2023-07-20T00:51:28;98499.72;;;22.79;100.00
38939;BME280;24211;49.980;19.776;2023-07-20T00:53:56;98493.34;;;22.75;100.00
38939;BME280;24211;49.980;19.776;2023-07-20T00:56:23;98494.63;;;22.69;100.00
38939;BME280;24211;49.980;19.776;2023-07-20T00:58:52;98497.50;;;22.64;100.00
38939;BME280;24211;49.980;19.776;2023-07-20T01:01:22;98506.63;;;22.59;100.00
38939;BME280;24211;49.980;19.776;2023-07-20T01:03:49;98511.91;;;22.56;100.00
38939;BME280;24211;49.980;19.776;2023-07-20T01:06:29;98512.06;;;22.51;100.00
38939;BME280;24211;49.980;19.776;2023-07-20T01:09:26;98512.88;;;22.43;100.00
38939;BME280;24211;49.980;19.776;2023-07-20T01:12:08;98515.13;;;22.41;100.00
38939;BME280;24211;49.980;19.776;2023-07-20T01:14:40;98525.19;;;22.32;100.00
38939;BME280;24211;49.980;19.776;2023-07-20T01:17:07;98548.25;;;22.17;100.00
38939;BME280;24211;49.980;19.776;2023-07-20T01:19:34;98557.50;;;21.90;100.00
38939;BME280;24211;49.980;19.776;2023-07-20T01:22:47;98554.22;;;21.71;100.00
38939;BME280;24211;49.980;19.776;2023-07-20T01:31:33;98575.97;;;21.32;100.00
38939;BME280;24211;49.980;19.776;2023-07-20T01:34:03;98578.00;;;21.57;100.00
38939;BME280;24211;49.980;19.776;2023-07-20T01:36:36;98581.09;;;21.73;100.00
38939;BME280;24211;49.980;19.776;2023-07-20T01:39:06;98576.97;;;21.84;100.00
38939;BME280;24211;49.980;19.776;2023-07-20T01:41:33;98578.78;;;21.88;100.00
38939;BME280;24211;49.980;19.776;2023-07-20T01:44:03;98580.34;;;21.89;100.00
38939;BME280;24211;49.980;19.776;2023-07-20T01:46:31;98593.47;;;21.87;100.00
38939;BME280;24211;49.980;19.776;2023-07-20T01:48:58;98581.59;;;21.83;100.00
38939;BME280;24211;49.980;19.776;2023-07-20T01:51:26;98581.91;;;21.73;100.00
38939;BME280;24211;49.980;19.776;2023-07-20T01:53:53;98575.50;;;21.69;100.00
38939;BME280;24211;49.980;19.776;2023-07-20T01:56:20;98576.28;;;21.70;100.00
38939;BME280;24211;49.980;19.776;2023-07-20T01:58:48;98570.22;;;21.73;100.00
38939;BME280;24211;49.980;19.776;2023-07-20T02:01:15;98560.63;;;21.75;100.00
38939;BME280;24211;49.980;19.776;2023-07-20T02:03:42;98555.66;;;21.77;100.00
38939;BME280;24211;49.980;19.776;2023-07-20T02:06:10;98551.84;;;21.78;100.00
38939;BME280;24211;49.980;19.776;2023-07-20T02:08:37;98547.00;;;21.75;100.00
38939;BME280;24211;49.980;19.776;2023-07-20T02:11:04;98545.44;;;21.74;100.00
38939;BME280;24211;49.980;19.776;2023-07-20T02:13:31;98542.19;;;21.72;100.00
38939;BME280;24211;49.980;19.776;2023-07-20T02:15:59;98549.88;;;21.70;100.00
38939;BME280;24211;49.980;19.776;2023-07-20T02:18:26;98552.13;;;21.68;100.00
38939;BME280;24211;49.980;19.776;2023-07-20T02:20:53;98547.31;;;21.65;100.00
38939;BME280;24211;49.980;19.776;2023-07-20T02:23:21;98545.72;;;21.64;100.00
38939;BME280;24211;49.980;19.776;2023-07-20T02:25:48;98544.44;;;21.62;100.00
38939;BME280;24211;49.980;19.776;2023-07-20T02:28:15;98545.84;;;21.59;100.00
38939;BME280;24211;49.980;19.776;2023-07-20T02:30:43;98546.47;;;21.56;100.00
38939;BME280;24211;49.980;19.776;2023-07-20T02:33:10;98538.94;;;21.53;100.00
38939;BME280;24211;49.980;19.776;2023-07-20T02:35:37;98540.38;;;21.50;100.00
38939;BME280;24211;49.980;19.776;2023-07-20T02:38:04;98543.41;;;21.49;100.00
38939;BME280;24211;49.980;19.776;2023-07-20T02:40:32;98551.09;;;21.47;100.00
38939;BME280;24211;49.980;19.776;2023-07-20T02:42:59;98547.56;;;21.46;100.00
38939;BME280;24211;49.980;19.776;2023-07-20T02:45:27;98559.06;;;21.43;100.00
38939;BME280;24211;49.980;19.776;2023-07-20T02:47:54;98549.13;;;21.39;100.00
38939;BME280;24211;49.980;19.776;2023-07-20T02:50:22;98562.25;;;21.37;100.00
38939;BME280;24211;49.980;19.776;2023-07-20T02:52:49;98585.09;;;21.36;100.00
38939;BME280;24211;49.980;19.776;2023-07-20T02:55:17;98579.78;;;21.31;100.00
38939;BME280;24211;49.980;19.776;2023-07-20T02:57:44;98584.72;;;21.29;100.00
38939;BME280;24211;49.980;19.776;2023-07-20T03:00:12;98581.53;;;21.27;100.00
38939;BME280;24211;49.980;19.776;2023-07-20T03:02:42;98584.88;;;21.24;100.00
38939;BME280;24211;49.980;19.776;2023-07-20T03:05:10;98585.47;;;21.21;100.00
38939;BME280;24211;49.980;19.776;2023-07-20T03:07:37;98586.75;;;21.15;100.00
38939;BME280;24211;49.980;19.776;2023-07-20T03:10:06;98597.75;;;21.10;100.00
38939;BME280;24211;49.980;19.776;2023-07-20T03:12:36;98602.03;;;21.11;100.00
38939;BME280;24211;49.980;19.776;2023-07-20T03:15:04;98605.88;;;21.10;100.00
38939;BME280;24211;49.980;19.776;2023-07-20T03:17:31;98602.97;;;21.06;100.00
38939;BME280;24211;49.980;19.776;2023-07-20T03:19:59;98611.13;;;21.06;100.00
38939;BME280;24211;49.980;19.776;2023-07-20T03:22:28;98620.41;;;21.05;100.00
38939;BME280;24211;49.980;19.776;2023-07-20T03:24:56;98620.19;;;21.02;100.00
38939;BME280;24211;49.980;19.776;2023-07-20T03:27:24;98623.03;;;20.97;100.00
38939;BME280;24211;49.980;19.776;2023-07-20T03:29:51;98631.28;;;20.92;100.00
38939;BME280;24211;49.980;19.776;2023-07-20T03:32:18;98627.59;;;20.88;100.00
38939;BME280;24211;49.980;19.776;2023-07-20T03:34:45;98619.25;;;20.84;100.00
38939;BME280;24211;49.980;19.776;2023-07-20T03:37:14;98630.75;;;20.81;100.00
38939;BME280;24211;49.980;19.776;2023-07-20T03:39:41;98631.84;;;20.80;100.00
38939;BME280;24211;49.980;19.776;2023-07-20T03:42:08;98632.94;;;20.79;100.00
38939;BME280;24211;49.980;19.776;2023-07-20T03:44:36;98639.78;;;20.76;100.00
38939;BME280;24211;49.980;19.776;2023-07-20T03:47:03;98638.19;;;20.75;100.00
38939;BME280;24211;49.980;19.776;2023-07-20T03:49:32;98645.34;;;20.71;100.00
38939;BME280;24211;49.980;19.776;2023-07-20T03:51:59;98646.94;;;20.72;100.00
38939;BME280;24211;49.980;19.776;2023-07-20T03:54:26;98656.84;;;20.68;100.00
38939;BME280;24211;49.980;19.776;2023-07-20T05:24:13;98789.22;;;20.99;100.00
38939;BME280;24211;49.980;19.776;2023-07-20T05:26:42;98788.53;;;21.07;100.00
38939;BME280;24211;49.980;19.776;2023-07-20T05:29:09;98785.97;;;21.24;100.00
38939;BME280;24211;49.980;19.776;2023-07-20T05:31:36;98778.50;;;21.29;100.00
38939;BME280;24211;49.980;19.776;2023-07-20T05:34:03;98785.06;;;21.50;100.00
38939;BME280;24211;49.980;19.776;2023-07-20T05:36:31;98778.56;;;21.60;100.00
38939;BME280;24211;49.980;19.776;2023-07-20T05:38:57;98764.59;;;21.75;100.00
38939;BME280;24211;49.980;19.776;2023-07-20T05:41:25;98762.69;;;21.76;100.00
38939;BME280;24211;49.980;19.776;2023-07-20T05:43:52;98755.97;;;21.95;100.00
38939;BME280;24211;49.980;19.776;2023-07-20T05:46:19;98760.38;;;22.13;100.00
38939;BME280;24211;49.980;19.776;2023-07-20T05:48:47;98761.53;;;22.21;100.00
38939;BME280;24211;49.980;19.776;2023-07-20T05:51:15;98764.41;;;22.25;100.00
38939;BME280;24211;49.980;19.776;2023-07-20T05:53:42;98764.75;;;22.23;100.00
38939;BME280;24211;49.980;19.776;2023-07-20T05:56:09;98764.63;;;22.37;100.00
38939;BME280;24211;49.980;19.776;2023-07-20T05:58:37;98760.84;;;22.55;100.00
38939;BME280;24211;49.980;19.776;2023-07-20T06:01:04;98760.31;;;22.75;100.00
38939;BME280;24211;49.980;19.776;2023-07-20T06:03:33;98747.19;;;22.94;100.00
38939;BME280;24211;49.980;19.776;2023-07-20T06:06:01;98754.22;;;23.12;100.00
38939;BME280;24211;49.980;19.776;2023-07-20T06:08:29;98767.06;;;23.03;100.00
38939;BME280;24211;49.980;19.776;2023-07-20T06:10:57;98755.22;;;22.99;100.00
38939;BME280;24211;49.980;19.776;2023-07-20T06:13:24;98751.34;;;23.17;100.00
38939;BME280;24211;49.980;19.776;2023-07-20T06:15:52;98752.66;;;23.28;100.00
38939;BME280;24211;49.980;19.776;2023-07-20T06:18:21;98753.63;;;23.50;100.00
38939;BME280;24211;49.980;19.776;2023-07-20T06:20:50;98746.56;;;23.66;100.00
38939;BME280;24211;49.980;19.776;2023-07-20T06:23:21;98744.25;;;23.85;100.00
38939;BME280;24211;49.980;19.776;2023-07-20T06:25:48;98739.41;;;23.99;100.00
38939;BME280;24211;49.980;19.776;2023-07-20T06:28:15;98739.69;;;24.06;100.00
38939;BME280;24211;49.980;19.776;2023-07-20T06:30:43;98744.69;;;24.13;100.00
38939;BME280;24211;49.980;19.776;2023-07-20T06:33:10;98742.91;;;24.08;100.00
38939;BME280;24211;49.980;19.776;2023-07-20T06:35:42;98745.47;;;24.13;100.00
38939;BME280;24211;49.980;19.776;2023-07-20T06:38:10;98734.53;;;24.22;100.00
38939;BME280;24211;49.980;19.776;2023-07-20T06:40:40;98738.53;;;24.24;100.00
38939;BME280;24211;49.980;19.776;2023-07-20T06:43:07;98747.38;;;24.21;100.00
38939;BME280;24211;49.980;19.776;2023-07-20T06:45:37;98749.47;;;24.16;100.00
38939;BME280;24211;49.980;19.776;2023-07-20T06:48:04;98746.56;;;24.21;100.00
38939;BME280;24211;49.980;19.776;2023-07-20T06:50:32;98749.47;;;24.16;100.00
38939;BME280;24211;49.980;19.776;2023-07-20T06:53:03;98749.19;;;24.09;100.00
38939;BME280;24211;49.980;19.776;2023-07-20T06:55:31;98756.56;;;24.17;100.00
38939;BME280;24211;49.980;19.776;2023-07-20T06:58:07;98757.19;;;24.14;100.00
38939;BME280;24211;49.980;19.776;2023-07-20T07:00:34;98749.19;;;24.46;100.00
38939;BME280;24211;49.980;19.776;2023-07-20T07:03:01;98749.69;;;24.78;100.00
38939;BME280;24211;49.980;19.776;2023-07-20T07:05:30;98749.44;;;25.12;100.00
38939;BME280;24211;49.980;19.776;2023-07-20T07:08:01;98750.31;;;25.04;100.00
38939;BME280;24211;49.980;19.776;2023-07-20T07:10:29;98743.56;;;25.01;100.00
38939;BME280;24211;49.980;19.776;2023-07-20T07:12:56;98750.38;;;24.95;100.00
38939;BME280;24211;49.980;19.776;2023-07-20T07:15:23;98746.06;;;25.15;100.00
38939;BME280;24211;49.980;19.776;2023-07-20T07:17:50;98754.72;;;25.17;100.00
38939;BME280;24211;49.980;19.776;2023-07-20T07:20:18;98754.28;;;25.68;100.00
38939;BME280;24211;49.980;19.776;2023-07-20T07:22:50;98744.81;;;25.98;100.00
38939;BME280;24211;49.980;19.776;2023-07-20T07:25:22;98746.91;;;26.14;100.00
38939;BME280;24211;49.980;19.776;2023-07-20T07:27:52;98749.09;;;25.87;100.00
38939;BME280;24211;49.980;19.776;2023-07-20T07:30:20;98751.56;;;25.68;100.00
38939;BME280;24211;49.980;19.776;2023-07-20T07:32:47;98745.66;;;25.78;100.00
38939;BME280;24211;49.980;19.776;2023-07-20T07:35:15;98742.91;;;25.78;100.00
38939;BME280;24211;49.980;19.776;2023-07-20T07:37:42;98750.59;;;25.52;100.00
38939;BME280;24211;49.980;19.776;2023-07-20T07:40:29;98756.91;;;26.10;100.00
38939;BME280;24211;49.980;19.776;2023-07-20T07:42:56;98755.38;;;26.21;99.37
38939;BME280;24211;49.980;19.776;2023-07-20T07:45:23;98761.22;;;25.98;98.23
38939;BME280;24211;49.980;19.776;2023-07-20T07:47:51;98753.84;;;25.66;100.00
38939;BME280;24211;49.980;19.776;2023-07-20T07:50:18;98750.88;;;25.71;100.00
38939;BME280;24211;49.980;19.776;2023-07-20T07:52:45;98752.03;;;25.82;100.00
38939;BME280;24211;49.980;19.776;2023-07-20T07:55:13;98747.50;;;25.86;99.06
38939;BME280;24211;49.980;19.776;2023-07-20T07:57:42;98746.94;;;25.93;98.67
38939;BME280;24211;49.980;19.776;2023-07-20T08:00:10;98755.06;;;25.89;98.55
38939;BME280;24211;49.980;19.776;2023-07-20T08:02:41;98755.31;;;26.09;96.83
38939;BME280;24211;49.980;19.776;2023-07-20T08:05:10;98749.44;;;26.19;94.49
38939;BME280;24211;49.980;19.776;2023-07-20T08:07:37;98742.81;;;26.32;92.45
38939;BME280;24211;49.980;19.776;2023-07-20T08:10:05;98748.53;;;26.63;90.24
38939;BME280;24211;49.980;19.776;2023-07-20T08:12:33;98756.28;;;26.97;86.76
38939;BME280;24211;49.980;19.776;2023-07-20T08:15:00;98751.09;;;27.08;85.41
38939;BME280;24211;49.980;19.776;2023-07-20T08:17:27;98760.84;;;26.93;85.94
38939;BME280;24211;49.980;19.776;2023-07-20T08:19:55;98757.22;;;26.89;87.72
38939;BME280;24211;49.980;19.776;2023-07-20T08:22:23;98759.13;;;27.01;86.28
38939;BME280;24211;49.980;19.776;2023-07-20T08:24:50;98770.25;;;26.80;87.82
38939;BME280;24211;49.980;19.776;2023-07-20T08:27:17;98764.53;;;26.97;86.54
38939;BME280;24211;49.980;19.776;2023-07-20T08:29:44;98767.97;;;26.82;87.50
38939;BME280;24211;49.980;19.776;2023-07-20T08:32:11;98778.47;;;26.68;87.30
38939;BME280;24211;49.980;19.776;2023-07-20T08:34:42;98775.94;;;26.63;86.62
38939;BME280;24211;49.980;19.776;2023-07-20T08:37:09;98779.03;;;26.86;84.89
38939;BME280;24211;49.980;19.776;2023-07-20T08:39:39;98772.31;;;26.95;84.18
38939;BME280;24211;49.980;19.776;2023-07-20T08:42:07;98781.63;;;27.06;81.72
38939;BME280;24211;49.980;19.776;2023-07-20T08:44:36;98777.53;;;27.00;83.18
38939;BME280;24211;49.980;19.776;2023-07-20T08:47:06;98775.53;;;27.25;81.15
38939;BME280;24211;49.980;19.776;2023-07-20T08:49:35;98784.31;;;27.43;79.79
38939;BME280;24211;49.980;19.776;2023-07-20T08:52:03;98780.38;;;27.56;77.26
38939;BME280;24211;49.980;19.776;2023-07-20T08:54:31;98778.34;;;27.53;75.89
38939;BME280;24211;49.980;19.776;2023-07-20T08:57:05;98790.72;;;27.35;74.51
38939;BME280;24211;49.980;19.776;2023-07-20T08:59:36;98784.00;;;27.32;74.30
38939;BME280;24211;49.980;19.776;2023-07-20T09:02:05;98782.00;;;27.57;73.53
38939;BME280;24211;49.980;19.776;2023-07-20T09:04:33;98783.03;;;27.80;71.13
38939;BME280;24211;49.980;19.776;2023-07-20T09:07:02;98776.78;;;27.95;69.96
38939;BME280;24211;49.980;19.776;2023-07-20T09:09:29;98785.00;;;28.38;67.64
38939;BME280;24211;49.980;19.776;2023-07-20T09:11:57;98772.41;;;28.69;64.65
38939;BME280;24211;49.980;19.776;2023-07-20T09:14:24;98781.09;;;28.39;63.02
38939;BME280;24211;49.980;19.776;2023-07-20T09:16:54;98782.16;;;28.50;64.13
38939;BME280;24211;49.980;19.776;2023-07-20T09:19:22;98777.81;;;28.49;61.96
38939;BME280;24211;49.980;19.776;2023-07-20T09:21:51;98769.44;;;28.93;59.25
38939;BME280;24211;49.980;19.776;2023-07-20T09:24:20;98767.66;;;29.00;59.51
38939;BME280;24211;49.980;19.776;2023-07-20T09:26:48;98773.25;;;29.04;58.13
38939;BME280;24211;49.980;19.776;2023-07-20T09:29:20;98764.22;;;28.88;58.88
38939;BME280;24211;49.980;19.776;2023-07-20T09:32:04;98763.00;;;29.04;58.63
38939;BME280;24211;49.980;19.776;2023-07-20T09:34:32;98775.16;;;29.19;57.84
38939;BME280;24211;49.980;19.776;2023-07-20T09:37:02;98769.09;;;29.29;57.57
38939;BME280;24211;49.980;19.776;2023-07-20T09:39:31;98766.88;;;29.73;56.83
38939;BME280;24211;49.980;19.776;2023-07-20T09:42:01;98776.78;;;29.97;53.85
38939;BME280;24211;49.980;19.776;2023-07-20T09:44:32;98766.13;;;29.76;53.44
38939;BME280;24211;49.980;19.776;2023-07-20T09:47:03;98778.97;;;29.88;53.46
38939;BME280;24211;49.980;19.776;2023-07-20T09:49:32;98777.09;;;30.14;52.51
38939;BME280;24211;49.980;19.776;2023-07-20T09:52:20;98764.44;;;30.10;52.08
38939;BME280;24211;49.980;19.776;2023-07-20T09:54:51;98775.31;;;30.03;51.82
38939;BME280;24211;49.980;19.776;2023-07-20T09:57:21;98759.78;;;30.14;50.22
38939;BME280;24211;49.980;19.776;2023-07-20T09:59:48;98768.53;;;30.19;49.60
38939;BME280;24211;49.980;19.776;2023-07-20T10:02:34;98776.72;;;30.16;50.06
38939;BME280;24211;49.980;19.776;2023-07-20T10:05:04;98769.38;;;30.23;50.15
38939;BME280;24211;49.980;19.776;2023-07-20T10:07:35;98781.09;;;30.17;49.21
38939;BME280;24211;49.980;19.776;2023-07-20T10:10:09;98778.09;;;29.84;49.93
38939;BME280;24211;49.980;19.776;2023-07-20T10:12:40;98778.41;;;29.78;50.41
38939;BME280;24211;49.980;19.776;2023-07-20T10:15:57;98780.06;;;29.83;50.61
38939;BME280;24211;49.980;19.776;2023-07-20T10:18:18;98782.44;;;29.65;50.42
38939;BME280;24211;49.980;19.776;2023-07-20T10:20:50;98776.28;;;29.72;50.61
38939;BME280;24211;49.980;19.776;2023-07-20T10:23:22;98770.41;;;29.93;49.55
38939;BME280;24211;49.980;19.776;2023-07-20T10:25:51;98771.06;;;29.86;49.94
38939;BME280;24211;49.980;19.776;2023-07-20T10:28:18;98759.66;;;30.07;49.31
38939;BME280;24211;49.980;19.776;2023-07-20T10:30:46;98762.22;;;30.19;49.26
38939;BME280;24211;49.980;19.776;2023-07-20T10:33:15;98762.78;;;30.51;48.80
38939;BME280;24211;49.980;19.776;2023-07-20T10:36:01;98772.41;;;30.86;47.95
38939;BME280;24211;49.980;19.776;2023-07-20T10:41:34;98758.91;;;30.81;47.43
38939;BME280;24211;49.980;19.776;2023-07-20T10:44:09;98752.72;;;31.14;46.49
38939;BME280;24211;49.980;19.776;2023-07-20T10:46:44;98742.84;;;31.43;46.15
38939;BME280;24211;49.980;19.776;2023-07-20T10:49:15;98737.44;;;31.50;46.02
38939;BME280;24211;49.980;19.776;2023-07-20T10:51:56;98747.06;;;31.63;45.62
38939;BME280;24211;49.980;19.776;2023-07-20T10:56:51;98764.47;;;31.67;45.68
38939;BME280;24211;49.980;19.776;2023-07-20T11:01:50;98746.44;;;31.80;44.85
38939;BME280;24211;49.980;19.776;2023-07-20T11:04:17;98743.25;;;31.75;44.70
38939;BME280;24211;49.980;19.776;2023-07-20T11:06:55;98738.16;;;31.77;44.18
38939;BME280;24211;49.980;19.776;2023-07-20T11:09:23;98739.28;;;31.72;44.59
38939;BME280;24211;49.980;19.776;2023-07-20T11:12:17;98744.94;;;31.86;43.72
38939;BME280;24211;49.980;19.776;2023-07-20T11:14:56;98741.84;;;31.91;43.58
38939;BME280;24211;49.980;19.776;2023-07-20T11:17:31;98740.94;;;31.80;43.90
38939;BME280;24211;49.980;19.776;2023-07-20T11:20:01;98737.47;;;31.90;43.06
38939;BME280;24211;49.980;19.776;2023-07-20T11:22:32;98740.38;;;31.64;42.68
38939;BME280;24211;49.980;19.776;2023-07-20T11:25:00;98738.50;;;31.42;42.89
38939;BME280;24211;49.980;19.776;2023-07-20T11:27:28;98739.50;;;31.27;42.56
38939;BME280;24211;49.980;19.776;2023-07-20T11:29:57;98737.78;;;31.15;43.31
38939;BME280;24211;49.980;19.776;2023-07-20T11:32:24;98734.13;;;31.08;44.35
38939;BME280;24211;49.980;19.776;2023-07-20T11:34:52;98738.88;;;30.84;43.76
38939;BME280;24211;49.980;19.776;2023-07-20T11:37:19;98743.88;;;30.49;44.27
38939;BME280;24211;49.980;19.776;2023-07-20T11:39:47;98744.63;;;30.50;44.67
38939;BME280;24211;49.980;19.776;2023-07-20T11:42:15;98745.78;;;30.71;44.49
38939;BME280;24211;49.980;19.776;2023-07-20T11:44:45;98735.28;;;30.80;44.78
38939;BME280;24211;49.980;19.776;2023-07-20T11:47:13;98736.22;;;31.18;44.03
38939;BME280;24211;49.980;19.776;2023-07-20T11:49:44;98731.38;;;31.41;43.55
38939;BME280;24211;49.980;19.776;2023-07-20T11:52:17;98725.41;;;31.68;43.64
38939;BME280;24211;49.980;19.776;2023-07-20T11:54:45;98720.66;;;32.02;42.28
38939;BME280;24211;49.980;19.776;2023-07-20T11:57:22;98720.50;;;31.88;42.29
38939;BME280;24211;49.980;19.776;2023-07-20T12:02:27;98720.03;;;31.46;42.89
38939;BME280;24211;49.980;19.776;2023-07-20T12:04:56;98723.75;;;31.31;43.01
38939;BME280;24211;49.980;19.776;2023-07-20T12:07:28;98710.09;;;31.12;43.11
38939;BME280;24211;49.980;19.776;2023-07-20T12:10:07;98707.38;;;30.85;43.81
38939;BME280;24211;49.980;19.776;2023-07-20T12:12:44;98698.66;;;30.83;42.28
38939;BME280;24211;49.980;19.776;2023-07-20T12:15:32;98703.75;;;31.08;41.39
38939;BME280;24211;49.980;19.776;2023-07-20T12:18:01;98705.31;;;31.38;41.20
38939;BME280;24211;49.980;19.776;2023-07-20T12:20:32;98708.38;;;31.63;40.40
38939;BME280;24211;49.980;19.776;2023-07-20T12:23:04;98707.81;;;31.84;39.56
38939;BME280;24211;49.980;19.776;2023-07-20T12:25:46;98705.16;;;31.94;39.67
38939;BME280;24211;49.980;19.776;2023-07-20T12:28:17;98699.50;;;32.20;39.09
38939;BME280;24211;49.980;19.776;2023-07-20T12:30:46;98696.44;;;32.33;37.91
38939;BME280;24211;49.980;19.776;2023-07-20T12:33:13;98695.47;;;32.11;39.39
38939;BME280;24211;49.980;19.776;2023-07-20T12:35:44;98700.25;;;32.14;39.45
38939;BME280;24211;49.980;19.776;2023-07-20T12:38:11;98693.22;;;32.23;39.51
38939;BME280;24211;49.980;19.776;2023-07-20T12:40:39;98691.13;;;32.61;39.08
38939;BME280;24211;49.980;19.776;2023-07-20T12:43:07;98687.72;;;32.85;39.10
38939;BME280;24211;49.980;19.776;2023-07-20T12:45:35;98679.09;;;32.97;38.60
38939;BME280;24211;49.980;19.776;2023-07-20T12:48:02;98686.25;;;33.05;38.68
38939;BME280;24211;49.980;19.776;2023-07-20T12:50:30;98684.38;;;33.30;38.43
38939;BME280;24211;49.980;19.776;2023-07-20T12:52:57;98685.50;;;33.15;39.28
38939;BME280;24211;49.980;19.776;2023-07-20T12:55:24;98685.34;;;33.94;36.59
38939;BME280;24211;49.980;19.776;2023-07-20T12:57:51;98659.22;;;33.95;35.53
38939;BME280;24211;49.980;19.776;2023-07-20T13:00:19;98663.19;;;33.91;35.07
38939;BME280;24211;49.980;19.776;2023-07-20T13:02:46;98670.28;;;33.64;35.49
38939;BME280;24211;49.980;19.776;2023-07-20T13:05:15;98671.03;;;33.57;35.87
38939;BME280;24211;49.980;19.776;2023-07-20T13:07:42;98669.13;;;33.93;35.65
38939;BME280;24211;49.980;19.776;2023-07-20T13:10:12;98669.56;;;34.09;35.64
38939;BME280;24211;49.980;19.776;2023-07-20T13:12:40;98673.47;;;34.01;35.83
38939;BME280;24211;49.980;19.776;2023-07-20T13:15:10;98667.97;;;34.08;36.47
38939;BME280;24211;49.980;19.776;2023-07-20T13:17:39;98656.34;;;35.01;34.05
38939;BME280;24211;49.980;19.776;2023-07-20T13:20:09;98658.25;;;35.22;33.33
38939;BME280;24211;49.980;19.776;2023-07-20T13:22:38;98653.16;;;35.10;32.97
38939;BME280;24211;49.980;19.776;2023-07-20T13:25:07;98655.09;;;35.16;32.53
38939;BME280;24211;49.980;19.776;2023-07-20T13:27:35;98663.88;;;34.97;33.14
38939;BME280;24211;49.980;19.776;2023-07-20T13:30:06;98649.38;;;35.52;31.42
38939;BME280;24211;49.980;19.776;2023-07-20T13:32:36;98647.59;;;35.10;32.50
38939;BME280;24211;49.980;19.776;2023-07-20T13:35:05;98652.31;;;35.20;31.45
38939;BME280;24211;49.980;19.776;2023-07-20T13:37:32;98655.59;;;34.79;31.57
38939;BME280;24211;49.980;19.776;2023-07-20T13:40:00;98666.34;;;34.35;32.75
38939;BME280;24211;49.980;19.776;2023-07-20T13:42:28;98660.03;;;34.06;33.71
38939;BME280;24211;49.980;19.776;2023-07-20T13:44:56;98654.88;;;34.47;32.37
38939;BME280;24211;49.980;19.776;2023-07-20T13:47:23;98646.94;;;34.42;31.81
38939;BME280;24211;49.980;19.776;2023-07-20T13:49:51;98649.69;;;34.53;31.89
38939;BME280;24211;49.980;19.776;2023-07-20T13:52:30;98667.97;;;34.64;31.61
38939;BME280;24211;49.980;19.776;2023-07-20T13:55:01;98660.41;;;34.68;31.31
38939;BME280;24211;49.980;19.776;2023-07-20T13:57:31;98662.34;;;34.78;31.44
38939;BME280;24211;49.980;19.776;2023-07-20T14:00:04;98663.22;;;34.54;31.83
38939;BME280;24211;49.980;19.776;2023-07-20T14:02:37;98660.03;;;34.52;31.71
38939;BME280;24211;49.980;19.776;2023-07-20T14:05:08;98667.16;;;34.39;31.94
38939;BME280;24211;49.980;19.776;2023-07-20T14:07:39;98664.00;;;34.09;32.57
38939;BME280;24211;49.980;19.776;2023-07-20T14:10:07;98666.38;;;34.28;31.66
38939;BME280;24211;49.980;19.776;2023-07-20T14:12:37;98664.81;;;34.27;31.35
38939;BME280;24211;49.980;19.776;2023-07-20T14:15:05;98660.03;;;34.31;31.01
38939;BME280;24211;49.980;19.776;2023-07-20T14:17:33;98655.28;;;34.39;30.55
38939;BME280;24211;49.980;19.776;2023-07-20T14:20:01;98653.72;;;34.20;31.39
38939;BME280;24211;49.980;19.776;2023-07-20T14:22:29;98649.72;;;34.49;31.51
38939;BME280;24211;49.980;19.776;2023-07-20T14:24:56;98647.38;;;34.30;31.70
38939;BME280;24211;49.980;19.776;2023-07-20T14:27:25;98630.72;;;34.27;31.57
38939;BME280;24211;49.980;19.776;2023-07-20T14:29:52;98645.34;;;33.92;32.60
38939;BME280;24211;49.980;19.776;2023-07-20T14:32:20;98651.69;;;33.75;32.84
38939;BME280;24211;49.980;19.776;2023-07-20T14:34:47;98657.63;;;33.80;33.60
38939;BME280;24211;49.980;19.776;2023-07-20T14:37:14;98652.47;;;33.79;33.65
38939;BME280;24211;49.980;19.776;2023-07-20T14:39:42;98659.22;;;33.92;33.27
38939;BME280;24211;49.980;19.776;2023-07-20T14:42:09;98661.97;;;33.78;33.31